^^
Datos históricos de la estación: Murcia-Puente Tocinos
Diario Informe para Diciembre 16, 2019 Unidades:  Ambas    Ingés   Métrico
Diario Semanal Mensual Anual
  Máxima: Mínima: Promedio:
Temperatura: 56.8 °F /  13.8 °C 46.6 °F /  8.1 °C 52 °F /  11.1 °C
Punto de rocio: 50.4 °F /  10.2 °C 42.8 °F /  6 °C 46.8 °F /  8.2 °C
Humedad: 88% 74% 83%
Velocidad viento: 4.7mph /  7.6km/h - 1.9mph /  3km/h
Racha viento: 7.4mph /  11.9km/h - -
Viento- - SSO
Presión: 29.9 in /  1011.4 hPa 29.6 in /  1000.9 hPa -
Precipitación: 0 in /  0.0 mm    
 
 
Tabla de datos para Diciembre 16, 2019
Hora Temperatura Punto de rocio Presión Viento Velocidad viento Racha viento Humedad Intensidad lluvia(por hora) Nubes
00:04 51.6 °F /  10.9 °C 46.4 °F /  8 °C 29.9in /  1011.3hPa SO 2.1mph /  3.4km/h 3mph /  4.8km/h 82% 0in /  0.0mm
00:09 51.4 °F /  10.8 °C 46.4 °F /  8 °C 29.9in /  1011.4hPa SO 1.8mph /  2.9km/h 3mph /  4.8km/h 82.9% 0in /  0.0mm
00:14 51.3 °F /  10.7 °C 46.2 °F /  7.9 °C 29.9in /  1011.4hPa SO 0.9mph /  1.4km/h 2.4mph /  3.9km/h 83% 0in /  0.0mm
00:19 51.3 °F /  10.7 °C 46.6 °F /  8.1 °C 29.9in /  1011.4hPa Calm   2.3mph /  3.7km/h 83.7% 0in /  0.0mm
00:24 51.1 °F /  10.6 °C 46.4 °F /  8 °C 29.9in /  1011.4hPa Calm   4.6mph /  7.4km/h 84% 0in /  0.0mm
00:29 51.1 °F /  10.6 °C 46.4 °F /  8 °C 29.9in /  1011.3hPa Calm   5mph /  8km/h 84% 0in /  0.0mm
00:34 51.1 °F /  10.6 °C 46.4 °F /  8 °C 29.9in /  1011.3hPa SSE 1mph /  1.6km/h 4.6mph /  7.4km/h 84% 0in /  0.0mm
00:39 50.9 °F /  10.5 °C 46.4 °F /  8 °C 29.9in /  1011.3hPa Sur 2mph /  3.2km/h 5mph /  8km/h 84.5% 0in /  0.0mm
00:44 50.9 °F /  10.5 °C 46.6 °F /  8.1 °C 29.9in /  1011.3hPa SSE 2.5mph /  4km/h 5.2mph /  8.4km/h 85% 0in /  0.0mm
00:49 50.9 °F /  10.5 °C 46.6 °F /  8.1 °C 29.9in /  1011.3hPa Sur 2.9mph /  4.6km/h 5mph /  8km/h 85% 0in /  0.0mm
00:54 50.7 °F /  10.4 °C 46.6 °F /  8.1 °C 29.9in /  1011.3hPa SSO 2.4mph /  3.9km/h 4mph /  6.4km/h 85% 0in /  0.0mm
00:59 50.7 °F /  10.4 °C 46.4 °F /  8 °C 29.9in /  1011.2hPa Sur 2mph /  3.2km/h 4.6mph /  7.4km/h 85% 0in /  0.0mm
01:04 50.7 °F /  10.4 °C 46.4 °F /  8 °C 29.9in /  1011.2hPa SE 1.7mph /  2.7km/h 5mph /  8km/h 85% 0in /  0.0mm
01:09 50.7 °F /  10.4 °C 46.4 °F /  8 °C 29.9in /  1011.2hPa ESE 1.4mph /  2.2km/h 3mph /  4.8km/h 85% 0in /  0.0mm
01:14 50.7 °F /  10.4 °C 46.4 °F /  8 °C 29.9in /  1011.0hPa ESE 1.4mph /  2.2km/h 3.1mph /  5km/h 85% 0in /  0.0mm
01:19 50.5 °F /  10.3 °C 46.2 °F /  7.9 °C 29.9in /  1011.0hPa ESE 1.4mph /  2.2km/h 3mph /  4.8km/h 85% 0in /  0.0mm
01:24 50.4 °F /  10.2 °C 46 °F /  7.8 °C 29.9in /  1011.0hPa ESE 0.7mph /  1.2km/h 2.9mph /  4.7km/h 85% 0in /  0.0mm
01:29 50.4 °F /  10.2 °C 46 °F /  7.8 °C 29.9in /  1010.9hPa Calm   3mph /  4.8km/h 85% 0in /  0.0mm
01:34 50.4 °F /  10.2 °C 46 °F /  7.8 °C 29.9in /  1010.9hPa SSO 1mph /  1.6km/h 3.6mph /  5.8km/h 85% 0in /  0.0mm
01:39 50.4 °F /  10.2 °C 46 °F /  7.8 °C 29.9in /  1010.9hPa SSO 2mph /  3.2km/h 4mph /  6.4km/h 85.4% 0in /  0.0mm
01:44 50.2 °F /  10.1 °C 46.2 °F /  7.9 °C 29.9in /  1010.8hPa SSO 2mph /  3.2km/h 3.1mph /  5km/h 86% 0in /  0.0mm
01:49 50.2 °F /  10.1 °C 46.2 °F /  7.9 °C 29.9in /  1010.8hPa SSO 2mph /  3.2km/h 3mph /  4.8km/h 86% 0in /  0.0mm
01:54 50.2 °F /  10.1 °C 46.2 °F /  7.9 °C 29.9in /  1010.8hPa SSO 1.9mph /  3.1km/h 4.3mph /  6.9km/h 86% 0in /  0.0mm
01:59 50.2 °F /  10.1 °C 45.9 °F /  7.7 °C 29.8in /  1010.6hPa SSO 1.8mph /  2.9km/h 5.2mph /  8.4km/h 85.3% 0in /  0.0mm
02:04 50.2 °F /  10.1 °C 45.9 °F /  7.7 °C 29.8in /  1010.6hPa SSO 2.1mph /  3.4km/h 5mph /  8km/h 85% 0in /  0.0mm
02:09 50 °F /  10 °C 45.5 °F /  7.5 °C 29.8in /  1010.6hPa Sur 2.4mph /  3.9km/h 5.9mph /  9.5km/h 84.5% 0in /  0.0mm
02:14 50 °F /  10 °C 45.1 °F /  7.3 °C 29.8in /  1010.4hPa Sur 2.6mph /  4.2km/h 6mph /  9.7km/h 83.5% 0in /  0.0mm
02:19 50 °F /  10 °C 45 °F /  7.2 °C 29.8in /  1010.4hPa Sur 2.9mph /  4.7km/h 5mph /  8km/h 83% 0in /  0.0mm
02:24 50.2 °F /  10.1 °C 45.1 °F /  7.3 °C 29.8in /  1010.5hPa SSO 2.9mph /  4.7km/h 4.6mph /  7.4km/h 83% 0in /  0.0mm
02:29 50.2 °F /  10.1 °C 45 °F /  7.2 °C 29.8in /  1010.5hPa Sur 2.9mph /  4.7km/h 5mph /  8km/h 82.4% 0in /  0.0mm
02:34 50.2 °F /  10.1 °C 44.8 °F /  7.1 °C 29.8in /  1010.5hPa SSO 2.9mph /  4.7km/h 5mph /  8km/h 82% 0in /  0.0mm
02:39 50 °F /  10 °C 44.8 °F /  7.1 °C 29.8in /  1010.5hPa SSO 2.9mph /  4.7km/h 5mph /  8km/h 82% 0in /  0.0mm
02:44 50 °F /  10 °C 44.8 °F /  7.1 °C 29.8in /  1010.2hPa SSO 2.2mph /  3.5km/h 4mph /  6.4km/h 82% 0in /  0.0mm
02:49 49.8 °F /  9.9 °C 44.8 °F /  7.1 °C 29.8in /  1010.2hPa SSO 1.4mph /  2.2km/h 1mph /  1.6km/h 82.3% 0in /  0.0mm
02:54 49.6 °F /  9.8 °C 44.8 °F /  7.1 °C 29.8in /  1010.2hPa SSO 0.7mph /  1.1km/h 2.9mph /  4.7km/h 83% 0in /  0.0mm
02:59 49.6 °F /  9.8 °C 44.8 °F /  7.1 °C 29.8in /  1010.2hPa Calm   3mph /  4.8km/h 83.5% 0in /  0.0mm
03:04 49.5 °F /  9.7 °C 44.8 °F /  7.1 °C 29.8in /  1010.2hPa Calm   2.9mph /  4.7km/h 84% 0in /  0.0mm
03:09 49.3 °F /  9.6 °C 44.8 °F /  7.1 °C 29.8in /  1010.2hPa Calm   3.5mph /  5.6km/h 84.3% 0in /  0.0mm
03:14 48.9 °F /  9.4 °C 44.6 °F /  7 °C 29.8in /  1010.1hPa OSO 0.9mph /  1.4km/h 3mph /  4.8km/h 85.1% 0in /  0.0mm
03:19 48.9 °F /  9.4 °C 44.8 °F /  7.1 °C 29.8in /  1010.1hPa OSO 1.8mph /  2.9km/h 2.3mph /  3.7km/h 86% 0in /  0.0mm
03:24 48.7 °F /  9.3 °C 44.8 °F /  7.1 °C 29.8in /  1010.1hPa OSO 0.9mph /  1.5km/h 2mph /  3.2km/h 86% 0in /  0.0mm
03:29 48.7 °F /  9.3 °C 45 °F /  7.2 °C 29.8in /  1010.1hPa Calm   2.9mph /  4.7km/h 86.8% 0in /  0.0mm
03:34 48.6 °F /  9.2 °C 45 °F /  7.2 °C 29.8in /  1010.1hPa Calm   3mph /  4.8km/h 87% 0in /  0.0mm
03:39 48.6 °F /  9.2 °C 45 °F /  7.2 °C 29.8in /  1010.1hPa Calm   2mph /  3.2km/h 87% 0in /  0.0mm
03:44 48.6 °F /  9.2 °C 45 °F /  7.2 °C 29.8in /  1009.9hPa Calm     87% 0in /  0.0mm
03:49 48.6 °F /  9.2 °C 45 °F /  7.2 °C 29.8in /  1009.9hPa Calm     87% 0in /  0.0mm
03:54 48.6 °F /  9.2 °C 45 °F /  7.2 °C 29.8in /  1009.9hPa Calm     87% 0in /  0.0mm
03:59 48.6 °F /  9.2 °C 45 °F /  7.2 °C 29.8in /  1009.9hPa Calm   2.4mph /  3.9km/h 87% 0in /  0.0mm
04:04 48.6 °F /  9.2 °C 44.8 °F /  7.1 °C 29.8in /  1009.9hPa Calm   2.3mph /  3.7km/h 87% 0in /  0.0mm
04:09 48.4 °F /  9.1 °C 44.8 °F /  7.1 °C 29.8in /  1009.9hPa Calm   2mph /  3.2km/h 87.1% 0in /  0.0mm
04:14 48.4 °F /  9.1 °C 45 °F /  7.2 °C 29.8in /  1009.8hPa Calm   4.6mph /  7.4km/h 88% 0in /  0.0mm
04:19 48.4 °F /  9.1 °C 45 °F /  7.2 °C 29.8in /  1009.8hPa Calm   5mph /  8km/h 88% 0in /  0.0mm
04:24 48.4 °F /  9.1 °C 45 °F /  7.2 °C 29.8in /  1009.8hPa SE 0.9mph /  1.5km/h 5mph /  8km/h 88% 0in /  0.0mm
04:29 48.4 °F /  9.1 °C 44.8 °F /  7.1 °C 29.8in /  1009.6hPa SE 2mph /  3.2km/h 5mph /  8km/h 87.3% 0in /  0.0mm
04:34 48.4 °F /  9.1 °C 44.8 °F /  7.1 °C 29.8in /  1009.6hPa SSE 2.2mph /  3.5km/h 5mph /  8km/h 87% 0in /  0.0mm
04:39 48.4 °F /  9.1 °C 44.6 °F /  7 °C 29.8in /  1009.6hPa SSO 2.4mph /  3.9km/h 5mph /  8km/h 87% 0in /  0.0mm
04:44 48.2 °F /  9 °C 44.6 °F /  7 °C 29.8in /  1009.6hPa SSO 2.4mph /  3.9km/h 5mph /  8km/h 87% 0in /  0.0mm
04:49 48.2 °F /  9 °C 44.4 °F /  6.9 °C 29.8in /  1009.6hPa SSO 2.4mph /  3.9km/h 4mph /  6.4km/h 87% 0in /  0.0mm
04:54 48.2 °F /  9 °C 44.4 °F /  6.9 °C 29.8in /  1009.6hPa SSO 2.2mph /  3.5km/h 3mph /  4.8km/h 87% 0in /  0.0mm
04:59 48.2 °F /  9 °C 44.6 °F /  7 °C 29.8in /  1009.3hPa Sur 2mph /  3.2km/h 3.5mph /  5.6km/h 87% 0in /  0.0mm
05:04 48.4 °F /  9.1 °C 44.4 °F /  6.9 °C 29.8in /  1009.3hPa Este 2mph /  3.2km/h 3.5mph /  5.6km/h 86.2% 0in /  0.0mm
05:09 48.2 °F /  9 °C 44.2 °F /  6.8 °C 29.8in /  1009.4hPa Sur 2mph /  3.2km/h 4.6mph /  7.4km/h 86% 0in /  0.0mm
05:14 48 °F /  8.9 °C 44.1 °F /  6.7 °C 29.8in /  1009.4hPa SSO 2mph /  3.2km/h 5mph /  8km/h 86% 0in /  0.0mm
05:19 48 °F /  8.9 °C 44.1 °F /  6.7 °C 29.8in /  1009.4hPa SSO 2mph /  3.2km/h 5.2mph /  8.4km/h 86% 0in /  0.0mm
05:24 48 °F /  8.9 °C 44.1 °F /  6.7 °C 29.8in /  1009.4hPa SSO 2mph /  3.2km/h 5mph /  8km/h 86% 0in /  0.0mm
05:29 48 °F /  8.9 °C 44.1 °F /  6.7 °C 29.8in /  1009.3hPa SSO 2mph /  3.2km/h 5mph /  8km/h 86% 0in /  0.0mm
05:34 47.8 °F /  8.8 °C 43.9 °F /  6.6 °C 29.8in /  1009.3hPa SSO 2.4mph /  3.9km/h 5mph /  8km/h 86% 0in /  0.0mm
05:39 47.8 °F /  8.8 °C 43.9 °F /  6.6 °C 29.8in /  1009.3hPa SSO 2.9mph /  4.7km/h 5mph /  8km/h 86% 0in /  0.0mm
05:44 47.8 °F /  8.8 °C 43.5 °F /  6.4 °C 29.8in /  1009.1hPa Sur 2.5mph /  4km/h 5mph /  8km/h 85.1% 0in /  0.0mm
05:49 47.8 °F /  8.8 °C 43.5 °F /  6.4 °C 29.8in /  1009.1hPa SSO 2mph /  3.2km/h 5mph /  8km/h 85% 0in /  0.0mm
05:54 48 °F /  8.9 °C 43.7 °F /  6.5 °C 29.8in /  1009.1hPa SSO 2mph /  3.2km/h 5mph /  8km/h 85% 0in /  0.0mm
05:59 48 °F /  8.9 °C 43.7 °F /  6.5 °C 29.8in /  1009.0hPa SSO 2mph /  3.2km/h 2.3mph /  3.7km/h 85% 0in /  0.0mm
06:04 48 °F /  8.9 °C 43.7 °F /  6.5 °C 29.8in /  1009.0hPa SSO 1mph /  1.6km/h 1mph /  1.6km/h 85% 0in /  0.0mm
06:09 48 °F /  8.9 °C 43.7 °F /  6.5 °C 29.8in /  1009.3hPa Calm   4.7mph /  7.6km/h 85% 0in /  0.0mm
06:14 48 °F /  8.9 °C 43.7 °F /  6.5 °C 29.8in /  1009.3hPa SSO 0.9mph /  1.5km/h 5mph /  8km/h 85% 0in /  0.0mm
06:19 48 °F /  8.9 °C 43.7 °F /  6.5 °C 29.8in /  1009.3hPa SSO 2mph /  3.2km/h 5mph /  8km/h 85% 0in /  0.0mm
06:24 48 °F /  8.9 °C 43.7 °F /  6.5 °C 29.8in /  1009.3hPa SSO 1.7mph /  2.8km/h 2mph /  3.2km/h 85% 0in /  0.0mm
06:29 48 °F /  8.9 °C 43.7 °F /  6.5 °C 29.8in /  1009.0hPa SSO 1.4mph /  2.2km/h 3.6mph /  5.8km/h 85% 0in /  0.0mm
06:34 48 °F /  8.9 °C 43.7 °F /  6.5 °C 29.8in /  1009.0hPa SSE 1.4mph /  2.2km/h 4.7mph /  7.6km/h 85% 0in /  0.0mm
06:39 47.8 °F /  8.8 °C 43.5 °F /  6.4 °C 29.8in /  1009.1hPa Sur 1.4mph /  2.2km/h 5.8mph /  9.3km/h 84.8% 0in /  0.0mm
06:44 47.8 °F /  8.8 °C 43.5 °F /  6.4 °C 29.8in /  1009.1hPa SSO 2.2mph /  3.6km/h 6mph /  9.7km/h 85% 0in /  0.0mm
06:49 47.8 °F /  8.8 °C 43.5 °F /  6.4 °C 29.8in /  1009.1hPa Sur 3.1mph /  5km/h 6mph /  9.7km/h 85% 0in /  0.0mm
06:54 47.8 °F /  8.8 °C 43.5 °F /  6.4 °C 29.8in /  1009.1hPa SSO 3.1mph /  5km/h 6mph /  9.7km/h 85% 0in /  0.0mm
06:59 47.8 °F /  8.8 °C 43.5 °F /  6.4 °C 29.8in /  1008.9hPa SSO 3.1mph /  5km/h 5mph /  8km/h 85% 0in /  0.0mm
07:04 47.8 °F /  8.8 °C 43.5 °F /  6.4 °C 29.8in /  1008.9hPa SSO 2.2mph /  3.6km/h 2.4mph /  3.9km/h 85% 0in /  0.0mm
07:09 47.8 °F /  8.8 °C 43.5 °F /  6.4 °C 29.8in /  1008.9hPa SSO 1.4mph /  2.2km/h 2.9mph /  4.7km/h 84.9% 0in /  0.0mm
07:14 47.8 °F /  8.8 °C 43.2 °F /  6.2 °C 29.8in /  1008.8hPa SO 1.4mph /  2.2km/h 3.6mph /  5.8km/h 84% 0in /  0.0mm
07:19 47.7 °F /  8.7 °C 43 °F /  6.1 °C 29.8in /  1008.8hPa North 1.4mph /  2.2km/h 4mph /  6.4km/h 84% 0in /  0.0mm
07:24 47.1 °F /  8.4 °C 42.8 °F /  6 °C 29.8in /  1008.9hPa NNO 1.7mph /  2.7km/h 4mph /  6.4km/h 84.8% 0in /  0.0mm
07:29 46.9 °F /  8.3 °C 43 °F /  6.1 °C 29.8in /  1008.9hPa NNO 2mph /  3.2km/h 3.6mph /  5.8km/h 85.9% 0in /  0.0mm
07:34 46.8 °F /  8.2 °C 42.8 °F /  6 °C 29.8in /  1008.9hPa NNO 1.9mph /  3.1km/h 4mph /  6.4km/h 86% 0in /  0.0mm
07:39 46.8 °F /  8.2 °C 43 °F /  6.1 °C 29.8in /  1009.0hPa NNO 1.8mph /  2.9km/h 2.4mph /  3.9km/h 86.7% 0in /  0.0mm
07:44 46.6 °F /  8.1 °C 43 °F /  6.1 °C 29.8in /  1009.0hPa NNO 1.6mph /  2.6km/h 2.4mph /  3.9km/h 87% 0in /  0.0mm
07:49 46.6 °F /  8.1 °C 43 °F /  6.1 °C 29.8in /  1009.0hPa NNO 1.4mph /  2.2km/h 2.4mph /  3.9km/h 87.6% 0in /  0.0mm
07:54 46.6 °F /  8.1 °C 43.2 °F /  6.2 °C 29.8in /  1009.2hPa NNO 0.7mph /  1.1km/h 2.3mph /  3.7km/h 88% 0in /  0.0mm
07:59 46.6 °F /  8.1 °C 43.2 °F /  6.2 °C 29.8in /  1009.2hPa Calm   2mph /  3.2km/h 88% 0in /  0.0mm
08:04 46.8 °F /  8.2 °C 43.3 °F /  6.3 °C 29.8in /  1009.2hPa Calm   2.3mph /  3.7km/h 88% 0in /  0.0mm
08:09 46.8 °F /  8.2 °C 43.3 °F /  6.3 °C 29.8in /  1009.2hPa Calm   2.9mph /  4.7km/h 88% 0in /  0.0mm
08:14 46.9 °F /  8.3 °C 43.5 °F /  6.4 °C 29.8in /  1009.1hPa NNO 0.7mph /  1.2km/h 3mph /  4.8km/h 88% 0in /  0.0mm
08:19 46.9 °F /  8.3 °C 43.5 °F /  6.4 °C 29.8in /  1009.1hPa NNO 1.4mph /  2.2km/h 3.1mph /  5km/h 88% 0in /  0.0mm
08:24 46.8 °F /  8.2 °C 43.2 °F /  6.2 °C 29.8in /  1009.1hPa NNO 0.7mph /  1.1km/h 3.5mph /  5.6km/h 87.2% 0in /  0.0mm
08:29 46.8 °F /  8.2 °C 43.2 °F /  6.2 °C 29.8in /  1009.1hPa Calm   3mph /  4.8km/h 87.3% 0in /  0.0mm
08:34 46.8 °F /  8.2 °C 43.3 °F /  6.3 °C 29.8in /  1009.1hPa Oeste 0.9mph /  1.4km/h 5.8mph /  9.3km/h 88% 0in /  0.0mm
08:39 46.8 °F /  8.2 °C 43.3 °F /  6.3 °C 29.8in /  1009.1hPa Oeste 1.8mph /  2.9km/h 6mph /  9.7km/h 88% 0in /  0.0mm
08:44 46.8 °F /  8.2 °C 43.3 °F /  6.3 °C 29.8in /  1008.9hPa OSO 1.8mph /  2.9km/h 5mph /  8km/h 88% 0in /  0.0mm
08:49 46.8 °F /  8.2 °C 43.5 °F /  6.4 °C 29.8in /  1008.9hPa SO 1.8mph /  2.9km/h 3.5mph /  5.6km/h 88% 0in /  0.0mm
08:54 46.9 °F /  8.3 °C 43.5 °F /  6.4 °C 29.8in /  1009.0hPa SSE 1.8mph /  2.9km/h 3.5mph /  5.6km/h 88% 0in /  0.0mm
08:59 47.1 °F /  8.4 °C 43.5 °F /  6.4 °C 29.8in /  1009.0hPa Sur 1.8mph /  2.9km/h 4.7mph /  7.6km/h 87.4% 0in /  0.0mm
09:04 47.1 °F /  8.4 °C 43.3 °F /  6.3 °C 29.8in /  1009.0hPa SE 1.9mph /  3.1km/h 5mph /  8km/h 87% 0in /  0.0mm
09:09 47.3 °F /  8.5 °C 43.3 °F /  6.3 °C 29.8in /  1009.0hPa SE 2mph /  3.2km/h 5.8mph /  9.3km/h 86.5% 0in /  0.0mm
09:14 47.3 °F /  8.5 °C 43.3 °F /  6.3 °C 29.8in /  1008.8hPa SE 2.5mph /  4km/h 6mph /  9.7km/h 86% 0in /  0.0mm
09:19 47.5 °F /  8.6 °C 43.5 °F /  6.4 °C 29.8in /  1008.8hPa Sur 2.9mph /  4.7km/h 5.8mph /  9.3km/h 86% 0in /  0.0mm
09:24 47.5 °F /  8.6 °C 43.5 °F /  6.4 °C 29.8in /  1008.8hPa Sur 3mph /  4.8km/h 6mph /  9.7km/h 86% 0in /  0.0mm
09:29 47.7 °F /  8.7 °C 43.7 °F /  6.5 °C 29.8in /  1008.8hPa SO 3.1mph /  5km/h 5.2mph /  8.4km/h 86% 0in /  0.0mm
09:34 47.8 °F /  8.8 °C 43.7 °F /  6.5 °C 29.8in /  1008.8hPa SSO 3.4mph /  5.4km/h 5.9mph /  9.5km/h 85.5% 0in /  0.0mm
09:39 47.8 °F /  8.8 °C 43.3 °F /  6.3 °C 29.8in /  1009.0hPa SSO 3.6mph /  5.8km/h 6.4mph /  10.3km/h 84.3% 0in /  0.0mm
09:44 48 °F /  8.9 °C 43.5 °F /  6.4 °C 29.8in /  1009.0hPa Sur 3.9mph /  6.3km/h 7.4mph /  11.9km/h 84% 0in /  0.0mm
09:49 48.2 °F /  9 °C 43.3 °F /  6.3 °C 29.8in /  1009.0hPa Sur 4.3mph /  6.9km/h 7.4mph /  11.9km/h 83.3% 0in /  0.0mm
09:54 48.4 °F /  9.1 °C 43.5 °F /  6.4 °C 29.8in /  1009.2hPa Sur 4.5mph /  7.2km/h 7mph /  11.3km/h 83% 0in /  0.0mm
09:59 48.4 °F /  9.1 °C 43.5 °F /  6.4 °C 29.8in /  1009.2hPa SSO 4.7mph /  7.6km/h 6mph /  9.7km/h 83% 0in /  0.0mm
10:04 48.6 °F /  9.2 °C 43.5 °F /  6.4 °C 29.8in /  1009.2hPa Sur 3.7mph /  6km/h 6mph /  9.7km/h 83% 0in /  0.0mm
10:09 48.6 °F /  9.2 °C 43.5 °F /  6.4 °C 29.8in /  1009.2hPa Sur 2.9mph /  4.7km/h 5mph /  8km/h 83% 0in /  0.0mm
10:14 48.7 °F /  9.3 °C 43.7 °F /  6.5 °C 29.8in /  1008.9hPa SSO 2.4mph /  3.8km/h 4mph /  6.4km/h 83% 0in /  0.0mm
10:19 48.9 °F /  9.4 °C 43.9 °F /  6.6 °C 29.8in /  1008.9hPa Oeste 1.8mph /  2.9km/h 4.6mph /  7.4km/h 83% 0in /  0.0mm
10:24 49.1 °F /  9.5 °C 43.9 °F /  6.6 °C 29.8in /  1008.9hPa ONO 1.9mph /  3.1km/h 5mph /  8km/h 82.4% 0in /  0.0mm
10:29 49.3 °F /  9.6 °C 44.1 °F /  6.7 °C 29.8in /  1008.7hPa Oeste 2mph /  3.2km/h 5mph /  8km/h 82.2% 0in /  0.0mm
10:34 49.3 °F /  9.6 °C 44.1 °F /  6.7 °C 29.8in /  1008.7hPa SO 2.4mph /  3.9km/h 6.2mph /  10km/h 82% 0in /  0.0mm
10:39 49.5 °F /  9.7 °C 44.1 °F /  6.7 °C 29.8in /  1008.9hPa OSO 2.9mph /  4.6km/h 6mph /  9.7km/h 82% 0in /  0.0mm
10:44 49.5 °F /  9.7 °C 44.2 °F /  6.8 °C 29.8in /  1008.9hPa OSO 2.9mph /  4.7km/h 5mph /  8km/h 82.2% 0in /  0.0mm
10:49 49.6 °F /  9.8 °C 44.4 °F /  6.9 °C 29.8in /  1008.9hPa Oeste 2.9mph /  4.7km/h 5mph /  8km/h 82% 0in /  0.0mm
10:54 49.6 °F /  9.8 °C 44.4 °F /  6.9 °C 29.8in /  1009.0hPa Oeste 2.4mph /  3.9km/h 5mph /  8km/h 81.9% 0in /  0.0mm
10:59 49.8 °F /  9.9 °C 44.2 °F /  6.8 °C 29.8in /  1009.0hPa SO 2mph /  3.2km/h 5mph /  8km/h 81% 0in /  0.0mm
11:04 50.2 °F /  10.1 °C 44.6 °F /  7 °C 29.8in /  1009.0hPa SSO 2.2mph /  3.5km/h 5.4mph /  8.7km/h 81% 0in /  0.0mm
11:09 50.4 °F /  10.2 °C 44.4 °F /  6.9 °C 29.8in /  1009.0hPa SSE 2.4mph /  3.9km/h 6mph /  9.7km/h 80.2% 0in /  0.0mm
11:14 50.5 °F /  10.3 °C 44.6 °F /  7 °C 29.8in /  1008.8hPa SSE 2.7mph /  4.4km/h 6mph /  9.7km/h 80% 0in /  0.0mm
11:19 50.7 °F /  10.4 °C 44.8 °F /  7.1 °C 29.8in /  1008.8hPa ESE 3.1mph /  5km/h 5.2mph /  8.4km/h 80% 0in /  0.0mm
11:24 50.7 °F /  10.4 °C 44.6 °F /  7 °C 29.8in /  1008.8hPa Sur 3mph /  4.8km/h 5.8mph /  9.3km/h 79.2% 0in /  0.0mm
11:29 50.9 °F /  10.5 °C 44.6 °F /  7 °C 29.8in /  1008.7hPa SSO 2.9mph /  4.7km/h 6mph /  9.7km/h 79% 0in /  0.0mm
11:34 51.1 °F /  10.6 °C 44.8 °F /  7.1 °C 29.8in /  1008.7hPa Sur 2.1mph /  3.4km/h 3.6mph /  5.8km/h 79% 0in /  0.0mm
11:39 51.3 °F /  10.7 °C 45 °F /  7.2 °C 29.8in /  1008.7hPa SSE 1.4mph /  2.2km/h 4mph /  6.4km/h 78.6% 0in /  0.0mm
11:44 51.4 °F /  10.8 °C 44.8 °F /  7.1 °C 29.8in /  1008.5hPa Sur 1.6mph /  2.6km/h 4.7mph /  7.6km/h 78% 0in /  0.0mm
11:49 51.4 °F /  10.8 °C 44.8 °F /  7.1 °C 29.8in /  1008.5hPa SSO 1.8mph /  2.9km/h 5.2mph /  8.4km/h 78% 0in /  0.0mm
11:54 51.4 °F /  10.8 °C 44.8 °F /  7.1 °C 29.8in /  1008.5hPa Oeste 2.4mph /  3.8km/h 5mph /  8km/h 78% 0in /  0.0mm
11:59 51.4 °F /  10.8 °C 45 °F /  7.2 °C 29.8in /  1008.2hPa SO 2.9mph /  4.7km/h 5.8mph /  9.3km/h 78% 0in /  0.0mm
12:04 51.6 °F /  10.9 °C 45 °F /  7.2 °C 29.8in /  1008.2hPa SSO 2.9mph /  4.7km/h 6mph /  9.7km/h 78% 0in /  0.0mm
12:09 51.8 °F /  11 °C 45.1 °F /  7.3 °C 29.8in /  1008.2hPa SSE 2.9mph /  4.6km/h 5mph /  8km/h 77.7% 0in /  0.0mm
12:14 52.2 °F /  11.2 °C 45.1 °F /  7.3 °C 29.8in /  1007.9hPa SE 2.4mph /  3.9km/h 5mph /  8km/h 77% 0in /  0.0mm
12:19 52.3 °F /  11.3 °C 45.3 °F /  7.4 °C 29.8in /  1007.9hPa SE 2mph /  3.2km/h 5mph /  8km/h 77% 0in /  0.0mm
12:24 52.3 °F /  11.3 °C 45.3 °F /  7.4 °C 29.8in /  1007.9hPa SE 1.9mph /  3.1km/h 5mph /  8km/h 76.8% 0in /  0.0mm
12:29 52.7 °F /  11.5 °C 45.3 °F /  7.4 °C 29.7in /  1007.3hPa ESE 1.8mph /  2.9km/h 5mph /  8km/h 76% 0in /  0.0mm
12:34 52.9 °F /  11.6 °C 45.5 °F /  7.5 °C 29.7in /  1007.3hPa SSO 2.1mph /  3.4km/h 5mph /  8km/h 76% 0in /  0.0mm
12:39 53.1 °F /  11.7 °C 45.7 °F /  7.6 °C 29.7in /  1007.3hPa SO 2.4mph /  3.9km/h 5mph /  8km/h 76% 0in /  0.0mm
12:44 53.2 °F /  11.8 °C 45.5 °F /  7.5 °C 29.7in /  1007.2hPa OSO 2.7mph /  4.3km/h 5mph /  8km/h 75.3% 0in /  0.0mm
12:49 53.2 °F /  11.8 °C 45.9 °F /  7.7 °C 29.7in /  1007.2hPa OSO 2.9mph /  4.7km/h 5mph /  8km/h 75.9% 0in /  0.0mm
12:54 53.6 °F /  12 °C 46.2 °F /  7.9 °C 29.7in /  1007.2hPa SO 2.4mph /  3.8km/h 4mph /  6.4km/h 76% 0in /  0.0mm
12:59 54 °F /  12.2 °C 46.6 °F /  8.1 °C 29.7in /  1006.6hPa OSO 1.8mph /  2.9km/h 5mph /  8km/h 76% 0in /  0.0mm
13:04 54.3 °F /  12.4 °C 46.9 °F /  8.3 °C 29.7in /  1006.6hPa SSO 1.8mph /  2.9km/h 5mph /  8km/h 76% 0in /  0.0mm
13:09 54.9 °F /  12.7 °C 47.1 °F /  8.4 °C 29.7in /  1006.6hPa ENE 1.8mph /  2.9km/h 3.5mph /  5.6km/h 75.4% 0in /  0.0mm
13:14 55 °F /  12.8 °C 47.3 °F /  8.5 °C 29.7in /  1006.2hPa NNE 1.6mph /  2.6km/h 3.5mph /  5.6km/h 74.8% 0in /  0.0mm
13:19 55.4 °F /  13 °C 47.1 °F /  8.4 °C 29.7in /  1006.2hPa NE 1.4mph /  2.2km/h 3.5mph /  5.6km/h 74% 0in /  0.0mm
13:24 55.6 °F /  13.1 °C 47.5 °F /  8.6 °C 29.7in /  1006.2hPa ENE 1.6mph /  2.6km/h 4.6mph /  7.4km/h 74.2% 0in /  0.0mm
13:29 55.6 °F /  13.1 °C 47.7 °F /  8.7 °C 29.7in /  1006.2hPa SO 1.8mph /  2.9km/h 5mph /  8km/h 74.7% 0in /  0.0mm
13:34 55.8 °F /  13.2 °C 48 °F /  8.9 °C 29.7in /  1006.2hPa SO 0.9mph /  1.5km/h 2.4mph /  3.9km/h 74.9% 0in /  0.0mm
13:39 56.1 °F /  13.4 °C 48 °F /  8.9 °C 29.7in /  1006.2hPa Calm   3.6mph /  5.8km/h 74.5% 0in /  0.0mm
13:44 56.1 °F /  13.4 °C 47.8 °F /  8.8 °C 29.7in /  1005.7hPa NNO 0.9mph /  1.4km/h 4mph /  6.4km/h 74% 0in /  0.0mm
13:49 56.1 °F /  13.4 °C 48 °F /  8.9 °C 29.7in /  1005.7hPa NNO 1.8mph /  2.9km/h 3.5mph /  5.6km/h 74.4% 0in /  0.0mm
13:54 56.1 °F /  13.4 °C 48.4 °F /  9.1 °C 29.7in /  1005.7hPa NO 1.6mph /  2.6km/h 4.6mph /  7.4km/h 75% 0in /  0.0mm
13:59 56.1 °F /  13.4 °C 48.6 °F /  9.2 °C 29.7in /  1005.5hPa Oeste 1.4mph /  2.2km/h 5mph /  8km/h 75.7% 0in /  0.0mm
14:04 55.9 °F /  13.3 °C 48.7 °F /  9.3 °C 29.7in /  1005.5hPa Oeste 1.7mph /  2.8km/h 3mph /  4.8km/h 76.8% 0in /  0.0mm
14:09 56.1 °F /  13.4 °C 49.1 °F /  9.5 °C 29.7in /  1005.5hPa ONO 2mph /  3.2km/h 2.9mph /  4.7km/h 77% 0in /  0.0mm
14:14 56.5 °F /  13.6 °C 49.1 °F /  9.5 °C 29.7in /  1005.2hPa NNO 1.1mph /  1.7km/h 3mph /  4.8km/h 76.4% 0in /  0.0mm
14:19 56.5 °F /  13.6 °C 48.9 °F /  9.4 °C 29.7in /  1005.2hPa Calm   4.3mph /  6.9km/h 76% 0in /  0.0mm
14:24 56.5 °F /  13.6 °C 48.9 °F /  9.4 °C 29.7in /  1005.2hPa ENE 0.9mph /  1.5km/h 5mph /  8km/h 76% 0in /  0.0mm
14:29 56.3 °F /  13.5 °C 48.7 °F /  9.3 °C 29.7in /  1005.1hPa ENE 2mph /  3.2km/h 5mph /  8km/h 76% 0in /  0.0mm
14:34 56.5 °F /  13.6 °C 49.1 °F /  9.5 °C 29.7in /  1005.1hPa ENE 1.7mph /  2.7km/h 3.5mph /  5.6km/h 76.4% 0in /  0.0mm
14:39 56.5 °F /  13.6 °C 49.1 °F /  9.5 °C 29.7in /  1005.1hPa NE 1.4mph /  2.2km/h 3.6mph /  5.8km/h 76.4% 0in /  0.0mm
14:44 56.5 °F /  13.6 °C 49.5 °F /  9.7 °C 29.7in /  1004.7hPa NE 1.6mph /  2.6km/h 4.7mph /  7.6km/h 77% 0in /  0.0mm
14:49 56.5 °F /  13.6 °C 49.5 °F /  9.7 °C 29.7in /  1004.7hPa North 1.8mph /  2.9km/h 5mph /  8km/h 77% 0in /  0.0mm
14:54 56.7 °F /  13.7 °C 49.5 °F /  9.7 °C 29.7in /  1004.7hPa NE 1.8mph /  2.9km/h 4.7mph /  7.6km/h 77% 0in /  0.0mm
14:59 56.5 °F /  13.6 °C 49.5 °F /  9.7 °C 29.7in /  1004.6hPa NE 1.8mph /  2.9km/h 5mph /  8km/h 77% 0in /  0.0mm
15:04 56.5 °F /  13.6 °C 49.5 °F /  9.7 °C 29.7in /  1004.6hPa NE 1.8mph /  2.9km/h 3.6mph /  5.8km/h 77% 0in /  0.0mm
15:09 56.5 °F /  13.6 °C 49.5 °F /  9.7 °C 29.7in /  1004.6hPa NNE 1.8mph /  2.9km/h 4.6mph /  7.4km/h 77% 0in /  0.0mm
15:14 56.5 °F /  13.6 °C 49.6 °F /  9.8 °C 29.7in /  1004.3hPa NO 1.9mph /  3.1km/h 5mph /  8km/h 78% 0in /  0.0mm
15:19 56.5 °F /  13.6 °C 49.6 °F /  9.8 °C 29.7in /  1004.3hPa NO 2mph /  3.2km/h 4mph /  6.4km/h 78% 0in /  0.0mm
15:24 56.7 °F /  13.7 °C 49.5 °F /  9.7 °C 29.7in /  1004.3hPa NO 1.7mph /  2.8km/h 3mph /  4.8km/h 77.1% 0in /  0.0mm
15:29 56.5 °F /  13.6 °C 49.5 °F /  9.7 °C 29.7in /  1004.3hPa NO 1.4mph /  2.2km/h 3mph /  4.8km/h 77% 0in /  0.0mm
15:34 56.7 °F /  13.7 °C 49.5 °F /  9.7 °C 29.7in /  1004.3hPa NO 0.7mph /  1.2km/h 4.3mph /  6.9km/h 77% 0in /  0.0mm
15:39 56.5 °F /  13.6 °C 49.5 °F /  9.7 °C 29.7in /  1004.3hPa Calm   5mph /  8km/h 77% 0in /  0.0mm
15:44 56.5 °F /  13.6 °C 49.6 °F /  9.8 °C 29.7in /  1004.1hPa NNE 0.7mph /  1.1km/h 3mph /  4.8km/h 77.6% 0in /  0.0mm
15:49 56.5 °F /  13.6 °C 49.6 °F /  9.8 °C 29.7in /  1004.1hPa NNE 1.4mph /  2.2km/h 1.4mph /  2.3km/h 78% 0in /  0.0mm
15:54 56.7 °F /  13.7 °C 49.8 °F /  9.9 °C 29.7in /  1004.1hPa NNE 0.7mph /  1.1km/h 3.5mph /  5.6km/h 77.8% 0in /  0.0mm
15:59 56.7 °F /  13.7 °C 49.8 °F /  9.9 °C 29.7in /  1004.1hPa Calm   4.6mph /  7.4km/h 78% 0in /  0.0mm
16:04 56.7 °F /  13.7 °C 49.8 °F /  9.9 °C 29.7in /  1004.1hPa Este 1.1mph /  1.8km/h 5mph /  8km/h 78% 0in /  0.0mm
16:09 56.7 °F /  13.7 °C 49.8 °F /  9.9 °C 29.7in /  1004.1hPa ESE 2mph /  3.2km/h 5mph /  8km/h 78% 0in /  0.0mm
16:14 56.7 °F /  13.7 °C 49.8 °F /  9.9 °C 29.7in /  1004.1hPa ESE 2.2mph /  3.5km/h 5mph /  8km/h 78% 0in /  0.0mm
16:19 56.7 °F /  13.7 °C 50 °F /  10 °C 29.7in /  1004.1hPa ESE 2.4mph /  3.9km/h 5mph /  8km/h 78.2% 0in /  0.0mm
16:24 56.7 °F /  13.7 °C 50.2 °F /  10.1 °C 29.7in /  1004.1hPa ESE 2.2mph /  3.5km/h 4mph /  6.4km/h 79% 0in /  0.0mm
16:29 56.7 °F /  13.7 °C 50.2 °F /  10.1 °C 29.6in /  1003.9hPa ESE 2mph /  3.2km/h 5mph /  8km/h 79% 0in /  0.0mm
16:34 56.7 °F /  13.7 °C 50.2 °F /  10.1 °C 29.6in /  1003.9hPa ESE 1.9mph /  3.1km/h 5mph /  8km/h 79% 0in /  0.0mm
16:39 56.7 °F /  13.7 °C 50.2 °F /  10.1 °C 29.6in /  1003.9hPa ESE 1.8mph /  2.9km/h 3mph /  4.8km/h 79% 0in /  0.0mm
16:44 56.7 °F /  13.7 °C 50.2 °F /  10.1 °C 29.6in /  1003.8hPa ESE 0.9mph /  1.4km/h 2mph /  3.2km/h 79% 0in /  0.0mm
16:49 56.7 °F /  13.7 °C 50.2 °F /  10.1 °C 29.6in /  1003.8hPa Calm   3.5mph /  5.6km/h 79% 0in /  0.0mm
16:54 56.8 °F /  13.8 °C 50.4 °F /  10.2 °C 29.6in /  1003.8hPa Calm   4mph /  6.4km/h 79% 0in /  0.0mm
16:59 56.8 °F /  13.8 °C 50.4 °F /  10.2 °C 29.6in /  1003.7hPa Calm   5mph /  8km/h 79% 0in /  0.0mm
17:04 56.8 °F /  13.8 °C 50.4 °F /  10.2 °C 29.6in /  1003.7hPa Oeste 1.3mph /  2.1km/h 5mph /  8km/h 79% 0in /  0.0mm
17:09 56.7 °F /  13.7 °C 50.2 °F /  10.1 °C 29.6in /  1003.7hPa Oeste 2.4mph /  3.9km/h 5.2mph /  8.4km/h 79% 0in /  0.0mm
17:14 56.7 °F /  13.7 °C 50.2 °F /  10.1 °C 29.6in /  1003.5hPa ONO 2.4mph /  3.9km/h 5mph /  8km/h 79% 0in /  0.0mm
17:19 56.7 °F /  13.7 °C 50.2 °F /  10.1 °C 29.6in /  1003.5hPa ONO 2.4mph /  3.9km/h 3.5mph /  5.6km/h 78.9% 0in /  0.0mm
17:24 56.7 °F /  13.7 °C 49.8 °F /  9.9 °C 29.6in /  1003.5hPa OSO 2.1mph /  3.4km/h 3.6mph /  5.8km/h 78% 0in /  0.0mm
17:29 56.7 °F /  13.7 °C 49.8 °F /  9.9 °C 29.6in /  1003.5hPa OSO 1.8mph /  2.9km/h 4mph /  6.4km/h 78% 0in /  0.0mm
17:34 56.5 °F /  13.6 °C 49.6 °F /  9.8 °C 29.6in /  1003.5hPa OSO 1.6mph /  2.6km/h 3mph /  4.8km/h 78% 0in /  0.0mm
17:39 56.5 °F /  13.6 °C 49.6 °F /  9.8 °C 29.6in /  1003.5hPa OSO 1.4mph /  2.2km/h 3mph /  4.8km/h 78% 0in /  0.0mm
17:44 56.5 °F /  13.6 °C 49.6 °F /  9.8 °C 29.6in /  1003.2hPa OSO 0.7mph /  1.2km/h 2.4mph /  3.9km/h 78% 0in /  0.0mm
17:49 56.5 °F /  13.6 °C 49.8 °F /  9.9 °C 29.6in /  1003.2hPa Calm   3.5mph /  5.6km/h 78.7% 0in /  0.0mm
17:54 56.5 °F /  13.6 °C 50.2 °F /  10.1 °C 29.6in /  1003.2hPa North 0.7mph /  1.2km/h 3mph /  4.8km/h 79.6% 0in /  0.0mm
17:59 56.3 °F /  13.5 °C 50.2 °F /  10.1 °C 29.6in /  1002.8hPa North 1.4mph /  2.2km/h 3mph /  4.8km/h 80% 0in /  0.0mm
18:04 56.1 °F /  13.4 °C 50 °F /  10 °C 29.6in /  1002.8hPa North 1.4mph /  2.2km/h 2.3mph /  3.7km/h 80% 0in /  0.0mm
18:09 56.1 °F /  13.4 °C 50 °F /  10 °C 29.6in /  1002.8hPa North 1.4mph /  2.2km/h 2.3mph /  3.7km/h 80% 0in /  0.0mm
18:14 56.1 °F /  13.4 °C 50 °F /  10 °C 29.6in /  1002.6hPa ENE 1.4mph /  2.2km/h 3.6mph /  5.8km/h 80% 0in /  0.0mm
18:19 55.9 °F /  13.3 °C 49.8 °F /  9.9 °C 29.6in /  1002.6hPa SE 1.4mph /  2.2km/h 4.6mph /  7.4km/h 80% 0in /  0.0mm
18:24 55.9 °F /  13.3 °C 49.8 °F /  9.9 °C 29.6in /  1002.7hPa SSO 2.2mph /  3.5km/h 5.2mph /  8.4km/h 80% 0in /  0.0mm
18:29 55.9 °F /  13.3 °C 49.8 °F /  9.9 °C 29.6in /  1002.7hPa SSO 2.9mph /  4.6km/h 5mph /  8km/h 80% 0in /  0.0mm
18:34 55.9 °F /  13.3 °C 49.8 °F /  9.9 °C 29.6in /  1002.7hPa SO 3mph /  4.8km/h 5mph /  8km/h 80% 0in /  0.0mm
18:39 55.9 °F /  13.3 °C 49.8 °F /  9.9 °C 29.6in /  1002.7hPa SO 3.1mph /  5km/h 5mph /  8km/h 80% 0in /  0.0mm
18:44 55.9 °F /  13.3 °C 49.8 °F /  9.9 °C 29.6in /  1002.7hPa SO 2.5mph /  4.1km/h 5mph /  8km/h 80% 0in /  0.0mm
18:49 55.9 °F /  13.3 °C 49.8 °F /  9.9 °C 29.6in /  1002.7hPa SO 2mph /  3.2km/h 2.3mph /  3.7km/h 80% 0in /  0.0mm
18:54 55.9 °F /  13.3 °C 49.8 °F /  9.9 °C 29.6in /  1002.7hPa SO 1mph /  1.6km/h 3.6mph /  5.8km/h 80% 0in /  0.0mm
18:59 55.9 °F /  13.3 °C 49.8 °F /  9.9 °C 29.6in /  1002.5hPa Calm   4mph /  6.4km/h 80% 0in /  0.0mm
19:04 55.8 °F /  13.2 °C 49.6 °F /  9.8 °C 29.6in /  1002.5hPa SO 0.7mph /  1.2km/h 3mph /  4.8km/h 80% 0in /  0.0mm
19:09 55.8 °F /  13.2 °C 49.6 °F /  9.8 °C 29.6in /  1002.5hPa SSO 1.4mph /  2.2km/h 3.6mph /  5.8km/h 80% 0in /  0.0mm
19:14 55.8 °F /  13.2 °C 49.6 °F /  9.8 °C 29.6in /  1002.3hPa SE 1.4mph /  2.2km/h 4.7mph /  7.6km/h 80% 0in /  0.0mm
19:19 55.8 °F /  13.2 °C 49.6 °F /  9.8 °C 29.6in /  1002.3hPa SE 1.4mph /  2.2km/h 5mph /  8km/h 80% 0in /  0.0mm
19:24 55.8 °F /  13.2 °C 49.6 °F /  9.8 °C 29.6in /  1002.3hPa ESE 1.9mph /  3km/h 5mph /  8km/h 80% 0in /  0.0mm
19:29 55.6 °F /  13.1 °C 49.6 °F /  9.8 °C 29.6in /  1002.1hPa ESE 2.4mph /  3.9km/h 5mph /  8km/h 80% 0in /  0.0mm
19:34 55.4 °F /  13 °C 49.6 °F /  9.8 °C 29.6in /  1002.1hPa ESE 2.7mph /  4.3km/h 5mph /  8km/h 81% 0in /  0.0mm
19:39 55 °F /  12.8 °C 49.6 °F /  9.8 °C 29.6in /  1002.4hPa SO 2.9mph /  4.6km/h 5mph /  8km/h 81.6% 0in /  0.0mm
19:44 55 °F /  12.8 °C 49.6 °F /  9.8 °C 29.6in /  1002.4hPa OSO 2.9mph /  4.7km/h 5.8mph /  9.3km/h 82% 0in /  0.0mm
19:49 55 °F /  12.8 °C 49.6 °F /  9.8 °C 29.6in /  1002.4hPa OSO 2.9mph /  4.6km/h 6mph /  9.7km/h 82% 0in /  0.0mm
19:54 54.9 °F /  12.7 °C 49.5 °F /  9.7 °C 29.6in /  1002.4hPa OSO 2.3mph /  3.7km/h 3.6mph /  5.8km/h 82% 0in /  0.0mm
19:59 54.9 °F /  12.7 °C 49.5 °F /  9.7 °C 29.6in /  1002.3hPa OSO 1.8mph /  2.9km/h 4.6mph /  7.4km/h 82% 0in /  0.0mm
20:04 54.7 °F /  12.6 °C 49.5 °F /  9.7 °C 29.6in /  1002.3hPa Oeste 1.9mph /  3.1km/h 5mph /  8km/h 82.7% 0in /  0.0mm
20:09 54.7 °F /  12.6 °C 49.6 °F /  9.8 °C 29.6in /  1002.3hPa OSO 2mph /  3.2km/h 4.7mph /  7.6km/h 83% 0in /  0.0mm
20:14 54.7 °F /  12.6 °C 49.6 °F /  9.8 °C 29.6in /  1002.3hPa SO 2.2mph /  3.6km/h 5mph /  8km/h 83% 0in /  0.0mm
20:19 54.7 °F /  12.6 °C 49.6 °F /  9.8 °C 29.6in /  1002.3hPa SO 2.4mph /  3.9km/h 5mph /  8km/h 83% 0in /  0.0mm
20:24 54.7 °F /  12.6 °C 49.6 °F /  9.8 °C 29.6in /  1002.3hPa SO 1.9mph /  3.1km/h 3.6mph /  5.8km/h 83% 0in /  0.0mm
20:29 54.7 °F /  12.6 °C 49.6 °F /  9.8 °C 29.6in /  1002.2hPa SSO 1.4mph /  2.2km/h 4.6mph /  7.4km/h 83% 0in /  0.0mm
20:34 54.7 °F /  12.6 °C 49.6 °F /  9.8 °C 29.6in /  1002.2hPa SE 2.2mph /  3.5km/h 5mph /  8km/h 83% 0in /  0.0mm
20:39 54.7 °F /  12.6 °C 49.6 °F /  9.8 °C 29.6in /  1002.2hPa SSE 2.9mph /  4.7km/h 5.2mph /  8.4km/h 83% 0in /  0.0mm
20:44 54.3 °F /  12.4 °C 49.3 °F /  9.6 °C 29.6in /  1002.2hPa SSE 3mph /  4.8km/h 5mph /  8km/h 83% 0in /  0.0mm
20:49 54.1 °F /  12.3 °C 49.3 °F /  9.6 °C 29.6in /  1002.2hPa SSE 3.1mph /  5km/h 5mph /  8km/h 83.3% 0in /  0.0mm
20:54 54.1 °F /  12.3 °C 49.5 °F /  9.7 °C 29.6in /  1002.2hPa Sur 3.1mph /  5km/h 6.2mph /  10km/h 84% 0in /  0.0mm
20:59 54.1 °F /  12.3 °C 49.5 °F /  9.7 °C 29.6in /  1002.1hPa SSE 3.1mph /  5km/h 6mph /  9.7km/h 84% 0in /  0.0mm
21:04 54.1 °F /  12.3 °C 49.5 °F /  9.7 °C 29.6in /  1002.1hPa SSO 3.4mph /  5.4km/h 5.2mph /  8.4km/h 84% 0in /  0.0mm
21:09 54.1 °F /  12.3 °C 49.5 °F /  9.7 °C 29.6in /  1002.1hPa SSO 3.6mph /  5.8km/h 5.8mph /  9.3km/h 84% 0in /  0.0mm
21:14 54.1 °F /  12.3 °C 49.5 °F /  9.7 °C 29.6in /  1001.8hPa SSO 3.4mph /  5.4km/h 6mph /  9.7km/h 84% 0in /  0.0mm
21:19 54.3 °F /  12.4 °C 49.6 °F /  9.8 °C 29.6in /  1001.8hPa SSO 3.1mph /  5km/h 5mph /  8km/h 84% 0in /  0.0mm
21:24 54.3 °F /  12.4 °C 49.6 °F /  9.8 °C 29.6in /  1001.9hPa SSO 2.5mph /  4.1km/h 5mph /  8km/h 84% 0in /  0.0mm
21:29 54.3 °F /  12.4 °C 49.6 °F /  9.8 °C 29.6in /  1001.9hPa SSO 2mph /  3.2km/h 2.9mph /  4.7km/h 84% 0in /  0.0mm
21:34 54.3 °F /  12.4 °C 49.6 °F /  9.8 °C 29.6in /  1001.9hPa OSO 1.9mph /  3.1km/h 5.2mph /  8.4km/h 84% 0in /  0.0mm
21:39 54.1 °F /  12.3 °C 49.5 °F /  9.7 °C 29.6in /  1001.9hPa OSO 1.8mph /  2.9km/h 6.2mph /  10km/h 84% 0in /  0.0mm
21:44 54.1 °F /  12.3 °C 49.6 °F /  9.8 °C 29.6in /  1001.9hPa OSO 2.7mph /  4.3km/h 6.9mph /  11.1km/h 84.9% 0in /  0.0mm
21:49 54.1 °F /  12.3 °C 49.6 °F /  9.8 °C 29.6in /  1001.9hPa SO 3.6mph /  5.8km/h 7mph /  11.3km/h 85% 0in /  0.0mm
21:54 54.1 °F /  12.3 °C 49.6 °F /  9.8 °C 29.6in /  1001.9hPa OSO 3.6mph /  5.8km/h 6mph /  9.7km/h 85% 0in /  0.0mm
21:59 54.1 °F /  12.3 °C 49.8 °F /  9.9 °C 29.6in /  1001.9hPa Oeste 3.6mph /  5.8km/h 6mph /  9.7km/h 85% 0in /  0.0mm
22:04 54.3 °F /  12.4 °C 49.8 °F /  9.9 °C 29.6in /  1001.9hPa Oeste 3mph /  4.8km/h 5mph /  8km/h 85% 0in /  0.0mm
22:09 54.3 °F /  12.4 °C 49.8 °F /  9.9 °C 29.6in /  1001.9hPa Oeste 2.4mph /  3.9km/h 3mph /  4.8km/h 85% 0in /  0.0mm
22:14 54.3 °F /  12.4 °C 49.8 °F /  9.9 °C 29.6in /  1001.8hPa Oeste 1.9mph /  3km/h 4.7mph /  7.6km/h 85% 0in /  0.0mm
22:19 54.3 °F /  12.4 °C 50 °F /  10 °C 29.6in /  1001.8hPa SO 1.4mph /  2.2km/h 5mph /  8km/h 85.1% 0in /  0.0mm
22:24 54.3 °F /  12.4 °C 50.2 °F /  10.1 °C 29.6in /  1001.8hPa SO 1.7mph /  2.7km/h 5mph /  8km/h 85.8% 0in /  0.0mm
22:29 54.3 °F /  12.4 °C 50.2 °F /  10.1 °C 29.6in /  1001.8hPa Sur 2mph /  3.2km/h 4.7mph /  7.6km/h 85.5% 0in /  0.0mm
22:34 54.5 °F /  12.5 °C 50 °F /  10 °C 29.6in /  1001.8hPa SSE 2.5mph /  4km/h 5mph /  8km/h 85% 0in /  0.0mm
22:39 54.3 °F /  12.4 °C 50 °F /  10 °C 29.6in /  1001.8hPa Sur 2.9mph /  4.6km/h 5.8mph /  9.3km/h 85% 0in /  0.0mm
22:44 54.3 °F /  12.4 °C 49.8 °F /  9.9 °C 29.6in /  1001.7hPa Sur 3mph /  4.8km/h 6mph /  9.7km/h 85% 0in /  0.0mm
22:49 54.3 °F /  12.4 °C 49.8 °F /  9.9 °C 29.6in /  1001.7hPa SSE 3.1mph /  5km/h 5mph /  8km/h 85% 0in /  0.0mm
22:54 54.1 °F /  12.3 °C 49.8 °F /  9.9 °C 29.6in /  1001.7hPa SE 2.8mph /  4.5km/h 5.2mph /  8.4km/h 85.1% 0in /  0.0mm
22:59 54.1 °F /  12.3 °C 49.8 °F /  9.9 °C 29.6in /  1001.4hPa SSE 2.4mph /  3.9km/h 5.2mph /  8.4km/h 85.5% 0in /  0.0mm
23:04 54.1 °F /  12.3 °C 50 °F /  10 °C 29.6in /  1001.4hPa Sur 3mph /  4.9km/h 5.8mph /  9.3km/h 86% 0in /  0.0mm
23:09 54.1 °F /  12.3 °C 50 °F /  10 °C 29.6in /  1001.4hPa SSO 3.6mph /  5.8km/h 6mph /  9.7km/h 86% 0in /  0.0mm
23:14 54.1 °F /  12.3 °C 50 °F /  10 °C 29.6in /  1001.3hPa SSO 3.6mph /  5.8km/h 6mph /  9.7km/h 86% 0in /  0.0mm
23:19 54.1 °F /  12.3 °C 50 °F /  10 °C 29.6in /  1001.3hPa Sur 3.6mph /  5.8km/h 5mph /  8km/h 86% 0in /  0.0mm
23:24 54.1 °F /  12.3 °C 50 °F /  10 °C 29.6in /  1001.3hPa Sur 3.2mph /  5.2km/h 5mph /  8km/h 86% 0in /  0.0mm
23:29 54.1 °F /  12.3 °C 50 °F /  10 °C 29.6in /  1001.0hPa SSO 2.9mph /  4.7km/h 5mph /  8km/h 86% 0in /  0.0mm
23:34 54.1 °F /  12.3 °C 50 °F /  10 °C 29.6in /  1001.0hPa SO 3mph /  4.8km/h 5mph /  8km/h 86% 0in /  0.0mm
23:39 54.1 °F /  12.3 °C 50.2 °F /  10.1 °C 29.6in /  1001.0hPa OSO 3.1mph /  5km/h 5.2mph /  8.4km/h 86% 0in /  0.0mm
23:44 54.3 °F /  12.4 °C 50.2 °F /  10.1 °C 29.6in /  1000.9hPa Oeste 3mph /  4.8km/h 5mph /  8km/h 86% 0in /  0.0mm
23:49 54.3 °F /  12.4 °C 50.2 °F /  10.1 °C 29.6in /  1000.9hPa OSO 2.9mph /  4.7km/h 5.2mph /  8.4km/h 86% 0in /  0.0mm
23:54 54.3 °F /  12.4 °C 50.2 °F /  10.1 °C 29.6in /  1000.9hPa OSO 2.6mph /  4.2km/h 5mph /  8km/h 86% 0in /  0.0mm
23:59 54.3 °F /  12.4 °C 50.2 °F /  10.1 °C 29.6in /  1000.9hPa OSO 2.4mph /  3.9km/h 5mph /  8km/h 86% 0in /  0.0mm
Murcia-Puente Tocinos, España
Compliments of Weather Underground - 3 mb

La estación de MeteoMurcia.com, publica sus datos en los siguientes proyectos:

Weather Underground PWS IMURCIAP2 Meteoclimatic www.awekas.at

W3Counter
Web Analytics